sensor_id;sensor_type;location;lat;lon;timestamp;P1;durP1;ratioP1;P2;durP2;ratioP2
27187;SDS011;14708;50.872;5.306;2023-04-24T00:01:03;2.05;;;1.20;;
27187;SDS011;14708;50.872;5.306;2023-04-24T00:03:28;1.27;;;1.00;;
27187;SDS011;14708;50.872;5.306;2023-04-24T00:05:55;2.10;;;1.25;;
27187;SDS011;14708;50.872;5.306;2023-04-24T00:08:20;1.27;;;1.10;;
27187;SDS011;14708;50.872;5.306;2023-04-24T00:10:47;1.70;;;1.08;;
27187;SDS011;14708;50.872;5.306;2023-04-24T00:13:13;1.73;;;1.30;;
27187;SDS011;14708;50.872;5.306;2023-04-24T00:15:39;2.17;;;1.15;;
27187;SDS011;14708;50.872;5.306;2023-04-24T00:18:04;1.75;;;1.00;;
27187;SDS011;14708;50.872;5.306;2023-04-24T00:20:30;1.63;;;1.00;;
27187;SDS011;14708;50.872;5.306;2023-04-24T00:23:00;1.70;;;1.20;;
27187;SDS011;14708;50.872;5.306;2023-04-24T00:25:26;2.42;;;1.25;;
27187;SDS011;14708;50.872;5.306;2023-04-24T00:27:54;2.08;;;1.45;;
27187;SDS011;14708;50.872;5.306;2023-04-24T00:30:19;3.53;;;1.40;;
27187;SDS011;14708;50.872;5.306;2023-04-24T00:32:45;2.47;;;1.45;;
27187;SDS011;14708;50.872;5.306;2023-04-24T00:35:11;1.83;;;1.20;;
27187;SDS011;14708;50.872;5.306;2023-04-24T00:40:58;1.10;;;0.93;;
27187;SDS011;14708;50.872;5.306;2023-04-24T00:43:24;1.58;;;1.20;;
27187;SDS011;14708;50.872;5.306;2023-04-24T00:45:50;1.10;;;1.00;;
27187;SDS011;14708;50.872;5.306;2023-04-24T00:48:16;1.20;;;1.10;;
27187;SDS011;14708;50.872;5.306;2023-04-24T00:50:42;1.52;;;1.30;;
27187;SDS011;14708;50.872;5.306;2023-04-24T00:53:09;2.40;;;1.17;;
27187;SDS011;14708;50.872;5.306;2023-04-24T01:02:59;1.38;;;1.17;;
27187;SDS011;14708;50.872;5.306;2023-04-24T01:05:29;1.75;;;1.02;;
27187;SDS011;14708;50.872;5.306;2023-04-24T01:07:54;1.88;;;1.33;;
27187;SDS011;14708;50.872;5.306;2023-04-24T01:10:21;1.55;;;1.20;;
27187;SDS011;14708;50.872;5.306;2023-04-24T01:12:48;1.20;;;1.10;;
27187;SDS011;14708;50.872;5.306;2023-04-24T01:15:13;2.25;;;1.20;;
27187;SDS011;14708;50.872;5.306;2023-04-24T01:17:39;2.17;;;1.25;;
27187;SDS011;14708;50.872;5.306;2023-04-24T01:20:05;1.80;;;1.40;;
27187;SDS011;14708;50.872;5.306;2023-04-24T01:22:51;1.10;;;0.90;;
27187;SDS011;14708;50.872;5.306;2023-04-24T01:25:19;2.10;;;1.20;;
27187;SDS011;14708;50.872;5.306;2023-04-24T01:27:45;1.63;;;1.10;;
27187;SDS011;14708;50.872;5.306;2023-04-24T01:30:11;1.08;;;0.88;;
27187;SDS011;14708;50.872;5.306;2023-04-24T01:32:37;1.98;;;1.63;;
27187;SDS011;14708;50.872;5.306;2023-04-24T01:35:04;2.00;;;1.40;;
27187;SDS011;14708;50.872;5.306;2023-04-24T01:37:30;1.65;;;1.35;;
27187;SDS011;14708;50.872;5.306;2023-04-24T01:39:57;2.90;;;1.42;;
27187;SDS011;14708;50.872;5.306;2023-04-24T01:42:23;2.10;;;1.30;;
27187;SDS011;14708;50.872;5.306;2023-04-24T01:44:49;1.85;;;0.98;;
27187;SDS011;14708;50.872;5.306;2023-04-24T01:47:16;1.65;;;1.10;;
27187;SDS011;14708;50.872;5.306;2023-04-24T01:49:42;2.05;;;1.40;;
27187;SDS011;14708;50.872;5.306;2023-04-24T01:52:08;1.88;;;1.23;;
27187;SDS011;14708;50.872;5.306;2023-04-24T01:54:33;1.75;;;1.05;;
27187;SDS011;14708;50.872;5.306;2023-04-24T01:56:59;2.33;;;1.20;;
27187;SDS011;14708;50.872;5.306;2023-04-24T01:59:27;2.50;;;1.30;;
27187;SDS011;14708;50.872;5.306;2023-04-24T02:01:53;1.42;;;1.20;;
27187;SDS011;14708;50.872;5.306;2023-04-24T02:04:19;2.15;;;1.20;;
27187;SDS011;14708;50.872;5.306;2023-04-24T02:06:45;2.42;;;1.42;;
27187;SDS011;14708;50.872;5.306;2023-04-24T02:09:11;1.38;;;1.20;;
27187;SDS011;14708;50.872;5.306;2023-04-24T02:11:36;1.27;;;1.17;;
27187;SDS011;14708;50.872;5.306;2023-04-24T02:14:02;1.63;;;1.10;;
27187;SDS011;14708;50.872;5.306;2023-04-24T02:16:28;1.17;;;0.93;;
27187;SDS011;14708;50.872;5.306;2023-04-24T02:21:23;1.67;;;1.00;;
27187;SDS011;14708;50.872;5.306;2023-04-24T02:23:48;2.20;;;1.40;;
27187;SDS011;14708;50.872;5.306;2023-04-24T02:26:14;2.78;;;1.50;;
27187;SDS011;14708;50.872;5.306;2023-04-24T02:28:40;2.17;;;1.40;;
27187;SDS011;14708;50.872;5.306;2023-04-24T02:31:06;1.92;;;1.10;;
27187;SDS011;14708;50.872;5.306;2023-04-24T02:33:35;1.20;;;1.10;;
27187;SDS011;14708;50.872;5.306;2023-04-24T02:36:01;1.40;;;1.10;;
27187;SDS011;14708;50.872;5.306;2023-04-24T02:38:28;1.65;;;1.02;;
27187;SDS011;14708;50.872;5.306;2023-04-24T02:40:54;1.50;;;1.20;;
27187;SDS011;14708;50.872;5.306;2023-04-24T02:43:19;2.00;;;1.60;;
27187;SDS011;14708;50.872;5.306;2023-04-24T02:45:45;2.80;;;1.08;;
27187;SDS011;14708;50.872;5.306;2023-04-24T02:48:11;1.15;;;1.02;;
27187;SDS011;14708;50.872;5.306;2023-04-24T02:50:37;1.23;;;1.10;;
27187;SDS011;14708;50.872;5.306;2023-04-24T02:53:03;1.20;;;1.10;;
27187;SDS011;14708;50.872;5.306;2023-04-24T02:55:29;1.98;;;1.20;;
27187;SDS011;14708;50.872;5.306;2023-04-24T02:57:55;1.52;;;1.20;;
27187;SDS011;14708;50.872;5.306;2023-04-24T03:00:20;1.90;;;1.13;;
27187;SDS011;14708;50.872;5.306;2023-04-24T03:02:46;1.60;;;1.20;;
27187;SDS011;14708;50.872;5.306;2023-04-24T03:05:12;2.47;;;1.50;;
27187;SDS011;14708;50.872;5.306;2023-04-24T03:07:38;1.58;;;1.30;;
27187;SDS011;14708;50.872;5.306;2023-04-24T03:10:04;1.88;;;1.30;;
27187;SDS011;14708;50.872;5.306;2023-04-24T03:12:31;1.55;;;1.00;;
27187;SDS011;14708;50.872;5.306;2023-04-24T03:14:57;1.33;;;1.10;;
27187;SDS011;14708;50.872;5.306;2023-04-24T03:17:22;1.60;;;1.40;;
27187;SDS011;14708;50.872;5.306;2023-04-24T03:19:48;1.20;;;1.10;;
27187;SDS011;14708;50.872;5.306;2023-04-24T03:22:14;1.33;;;1.17;;
27187;SDS011;14708;50.872;5.306;2023-04-24T03:24:39;3.08;;;1.23;;
27187;SDS011;14708;50.872;5.306;2023-04-24T03:27:05;2.53;;;1.55;;
27187;SDS011;14708;50.872;5.306;2023-04-24T03:29:31;1.65;;;1.33;;
27187;SDS011;14708;50.872;5.306;2023-04-24T03:31:56;2.72;;;1.55;;
27187;SDS011;14708;50.872;5.306;2023-04-24T03:34:22;2.28;;;1.33;;
27187;SDS011;14708;50.872;5.306;2023-04-24T03:36:48;2.63;;;1.00;;
27187;SDS011;14708;50.872;5.306;2023-04-24T03:39:13;1.92;;;1.40;;
27187;SDS011;14708;50.872;5.306;2023-04-24T03:41:39;1.70;;;1.35;;
27187;SDS011;14708;50.872;5.306;2023-04-24T03:44:05;1.77;;;1.13;;
27187;SDS011;14708;50.872;5.306;2023-04-24T03:46:31;1.55;;;1.20;;
27187;SDS011;14708;50.872;5.306;2023-04-24T03:48:56;1.27;;;1.17;;
27187;SDS011;14708;50.872;5.306;2023-04-24T03:51:22;1.40;;;1.30;;
27187;SDS011;14708;50.872;5.306;2023-04-24T03:53:48;1.38;;;1.25;;
27187;SDS011;14708;50.872;5.306;2023-04-24T03:56:14;1.38;;;1.20;;
27187;SDS011;14708;50.872;5.306;2023-04-24T03:58:40;1.70;;;1.30;;
27187;SDS011;14708;50.872;5.306;2023-04-24T04:01:06;1.20;;;1.10;;
27187;SDS011;14708;50.872;5.306;2023-04-24T04:03:32;1.67;;;1.23;;
27187;SDS011;14708;50.872;5.306;2023-04-24T04:05:58;1.35;;;1.08;;
27187;SDS011;14708;50.872;5.306;2023-04-24T04:08:24;1.30;;;1.20;;
27187;SDS011;14708;50.872;5.306;2023-04-24T04:10:50;1.20;;;1.05;;
27187;SDS011;14708;50.872;5.306;2023-04-24T04:13:15;1.48;;;1.38;;
27187;SDS011;14708;50.872;5.306;2023-04-24T04:15:41;1.38;;;1.20;;
27187;SDS011;14708;50.872;5.306;2023-04-24T04:18:07;1.15;;;1.05;;
27187;SDS011;14708;50.872;5.306;2023-04-24T04:20:33;1.63;;;1.40;;
27187;SDS011;14708;50.872;5.306;2023-04-24T04:22:59;1.40;;;1.30;;
27187;SDS011;14708;50.872;5.306;2023-04-24T04:25:25;2.08;;;1.30;;
27187;SDS011;14708;50.872;5.306;2023-04-24T04:27:50;1.55;;;1.33;;
27187;SDS011;14708;50.872;5.306;2023-04-24T04:30:17;1.30;;;1.20;;
27187;SDS011;14708;50.872;5.306;2023-04-24T04:32:43;1.42;;;1.33;;
27187;SDS011;14708;50.872;5.306;2023-04-24T04:35:09;1.30;;;1.20;;
27187;SDS011;14708;50.872;5.306;2023-04-24T04:37:35;1.27;;;1.17;;
27187;SDS011;14708;50.872;5.306;2023-04-24T04:40:01;2.05;;;1.27;;
27187;SDS011;14708;50.872;5.306;2023-04-24T04:42:31;1.48;;;1.27;;
27187;SDS011;14708;50.872;5.306;2023-04-24T04:45:01;1.40;;;1.30;;
27187;SDS011;14708;50.872;5.306;2023-04-24T04:47:27;1.77;;;1.15;;
27187;SDS011;14708;50.872;5.306;2023-04-24T04:49:53;1.25;;;1.15;;
27187;SDS011;14708;50.872;5.306;2023-04-24T04:52:24;2.45;;;1.60;;
27187;SDS011;14708;50.872;5.306;2023-04-24T04:54:50;1.40;;;1.23;;
27187;SDS011;14708;50.872;5.306;2023-04-24T04:57:16;1.25;;;1.15;;
27187;SDS011;14708;50.872;5.306;2023-04-24T04:59:42;1.70;;;1.33;;
27187;SDS011;14708;50.872;5.306;2023-04-24T05:02:07;1.40;;;1.27;;
27187;SDS011;14708;50.872;5.306;2023-04-24T05:04:33;1.50;;;1.40;;
27187;SDS011;14708;50.872;5.306;2023-04-24T05:06:59;1.40;;;1.20;;
27187;SDS011;14708;50.872;5.306;2023-04-24T05:09:25;1.48;;;1.10;;
27187;SDS011;14708;50.872;5.306;2023-04-24T05:11:52;2.22;;;1.30;;
27187;SDS011;14708;50.872;5.306;2023-04-24T05:14:18;1.35;;;1.25;;
27187;SDS011;14708;50.872;5.306;2023-04-24T05:16:44;3.25;;;1.50;;
27187;SDS011;14708;50.872;5.306;2023-04-24T05:19:10;1.20;;;1.10;;
27187;SDS011;14708;50.872;5.306;2023-04-24T05:21:37;1.42;;;1.30;;
27187;SDS011;14708;50.872;5.306;2023-04-24T05:24:04;1.05;;;1.00;;
27187;SDS011;14708;50.872;5.306;2023-04-24T05:26:30;1.35;;;1.25;;
27187;SDS011;14708;50.872;5.306;2023-04-24T05:28:56;1.38;;;1.10;;
27187;SDS011;14708;50.872;5.306;2023-04-24T05:31:22;1.25;;;1.02;;
27187;SDS011;14708;50.872;5.306;2023-04-24T05:33:57;1.40;;;1.15;;
27187;SDS011;14708;50.872;5.306;2023-04-24T05:36:23;1.23;;;1.13;;
27187;SDS011;14708;50.872;5.306;2023-04-24T05:38:48;1.30;;;1.20;;
27187;SDS011;14708;50.872;5.306;2023-04-24T05:41:14;1.63;;;1.40;;
27187;SDS011;14708;50.872;5.306;2023-04-24T05:43:40;1.55;;;1.30;;
27187;SDS011;14708;50.872;5.306;2023-04-24T05:46:05;1.40;;;1.23;;
27187;SDS011;14708;50.872;5.306;2023-04-24T05:48:31;1.10;;;1.00;;
27187;SDS011;14708;50.872;5.306;2023-04-24T05:50:57;1.73;;;1.40;;
27187;SDS011;14708;50.872;5.306;2023-04-24T05:53:22;1.33;;;1.17;;
27187;SDS011;14708;50.872;5.306;2023-04-24T05:55:48;2.03;;;1.35;;
27187;SDS011;14708;50.872;5.306;2023-04-24T05:58:14;1.95;;;1.20;;
27187;SDS011;14708;50.872;5.306;2023-04-24T06:00:43;1.50;;;1.30;;
27187;SDS011;14708;50.872;5.306;2023-04-24T06:03:11;2.25;;;1.20;;
27187;SDS011;14708;50.872;5.306;2023-04-24T06:05:37;1.90;;;1.13;;
27187;SDS011;14708;50.872;5.306;2023-04-24T06:08:02;1.55;;;1.10;;
27187;SDS011;14708;50.872;5.306;2023-04-24T06:10:28;4.88;;;1.33;;
27187;SDS011;14708;50.872;5.306;2023-04-24T06:12:54;2.63;;;1.17;;
27187;SDS011;14708;50.872;5.306;2023-04-24T06:15:25;1.38;;;1.17;;
27187;SDS011;14708;50.872;5.306;2023-04-24T06:17:52;1.70;;;1.27;;
27187;SDS011;14708;50.872;5.306;2023-04-24T06:20:21;2.00;;;1.58;;
27187;SDS011;14708;50.872;5.306;2023-04-24T06:22:49;1.33;;;1.07;;
27187;SDS011;14708;50.872;5.306;2023-04-24T06:25:15;2.13;;;1.40;;
27187;SDS011;14708;50.872;5.306;2023-04-24T06:27:43;1.67;;;1.35;;
27187;SDS011;14708;50.872;5.306;2023-04-24T06:30:09;1.52;;;1.30;;
27187;SDS011;14708;50.872;5.306;2023-04-24T06:32:36;2.83;;;1.73;;
27187;SDS011;14708;50.872;5.306;2023-04-24T06:35:01;5.40;;;1.83;;
27187;SDS011;14708;50.872;5.306;2023-04-24T06:37:27;5.28;;;1.98;;
27187;SDS011;14708;50.872;5.306;2023-04-24T06:39:53;2.80;;;1.83;;
27187;SDS011;14708;50.872;5.306;2023-04-24T06:42:21;7.32;;;2.20;;
27187;SDS011;14708;50.872;5.306;2023-04-24T06:44:49;2.85;;;2.08;;
27187;SDS011;14708;50.872;5.306;2023-04-24T06:47:18;3.58;;;1.90;;
27187;SDS011;14708;50.872;5.306;2023-04-24T06:49:44;3.25;;;1.90;;
27187;SDS011;14708;50.872;5.306;2023-04-24T06:52:10;2.47;;;1.98;;
27187;SDS011;14708;50.872;5.306;2023-04-24T06:54:35;3.13;;;2.08;;
27187;SDS011;14708;50.872;5.306;2023-04-24T06:57:01;4.75;;;1.80;;
27187;SDS011;14708;50.872;5.306;2023-04-24T06:59:28;3.25;;;1.92;;
27187;SDS011;14708;50.872;5.306;2023-04-24T07:01:54;4.45;;;2.25;;
27187;SDS011;14708;50.872;5.306;2023-04-24T07:04:41;2.70;;;1.70;;
27187;SDS011;14708;50.872;5.306;2023-04-24T07:07:08;2.50;;;1.52;;
27187;SDS011;14708;50.872;5.306;2023-04-24T07:09:57;2.92;;;1.95;;
27187;SDS011;14708;50.872;5.306;2023-04-24T07:12:23;4.45;;;2.08;;
27187;SDS011;14708;50.872;5.306;2023-04-24T07:14:50;3.63;;;1.92;;
27187;SDS011;14708;50.872;5.306;2023-04-24T07:17:16;4.20;;;1.85;;
27187;SDS011;14708;50.872;5.306;2023-04-24T07:19:42;3.88;;;2.08;;
27187;SDS011;14708;50.872;5.306;2023-04-24T07:22:08;2.72;;;1.75;;
27187;SDS011;14708;50.872;5.306;2023-04-24T07:24:33;2.50;;;2.00;;
27187;SDS011;14708;50.872;5.306;2023-04-24T07:26:59;2.42;;;1.95;;
27187;SDS011;14708;50.872;5.306;2023-04-24T07:29:28;2.78;;;1.92;;
27187;SDS011;14708;50.872;5.306;2023-04-24T07:31:54;3.53;;;1.95;;
27187;SDS011;14708;50.872;5.306;2023-04-24T07:34:21;4.93;;;1.92;;
27187;SDS011;14708;50.872;5.306;2023-04-24T07:36:47;3.83;;;2.00;;
27187;SDS011;14708;50.872;5.306;2023-04-24T07:39:12;2.92;;;1.88;;
27187;SDS011;14708;50.872;5.306;2023-04-24T07:41:38;7.80;;;2.67;;
27187;SDS011;14708;50.872;5.306;2023-04-24T07:44:04;6.13;;;2.45;;
27187;SDS011;14708;50.872;5.306;2023-04-24T07:46:30;5.68;;;2.22;;
27187;SDS011;14708;50.872;5.306;2023-04-24T07:48:57;11.13;;;3.55;;
27187;SDS011;14708;50.872;5.306;2023-04-24T07:51:24;44.60;;;9.15;;
27187;SDS011;14708;50.872;5.306;2023-04-24T07:53:52;49.30;;;8.48;;
27187;SDS011;14708;50.872;5.306;2023-04-24T07:56:20;34.17;;;9.02;;
27187;SDS011;14708;50.872;5.306;2023-04-24T07:58:45;44.55;;;10.93;;
27187;SDS011;14708;50.872;5.306;2023-04-24T08:01:11;54.38;;;15.10;;
27187;SDS011;14708;50.872;5.306;2023-04-24T08:03:37;46.15;;;10.68;;
27187;SDS011;14708;50.872;5.306;2023-04-24T08:06:03;41.75;;;11.65;;
27187;SDS011;14708;50.872;5.306;2023-04-24T08:08:29;47.70;;;14.02;;
27187;SDS011;14708;50.872;5.306;2023-04-24T08:10:58;44.10;;;13.63;;
27187;SDS011;14708;50.872;5.306;2023-04-24T08:13:23;48.10;;;16.02;;
27187;SDS011;14708;50.872;5.306;2023-04-24T08:15:49;57.95;;;18.27;;
27187;SDS011;14708;50.872;5.306;2023-04-24T08:18:15;48.83;;;16.30;;
27187;SDS011;14708;50.872;5.306;2023-04-24T08:20:41;45.97;;;15.23;;
27187;SDS011;14708;50.872;5.306;2023-04-24T08:23:07;51.17;;;15.88;;
27187;SDS011;14708;50.872;5.306;2023-04-24T08:25:33;48.75;;;16.30;;
27187;SDS011;14708;50.872;5.306;2023-04-24T08:28:02;47.70;;;15.50;;
27187;SDS011;14708;50.872;5.306;2023-04-24T08:30:29;42.58;;;14.45;;
27187;SDS011;14708;50.872;5.306;2023-04-24T08:32:57;39.33;;;15.40;;
27187;SDS011;14708;50.872;5.306;2023-04-24T08:35:23;40.20;;;14.93;;
27187;SDS011;14708;50.872;5.306;2023-04-24T08:37:49;40.38;;;16.25;;
27187;SDS011;14708;50.872;5.306;2023-04-24T08:40:38;40.92;;;14.32;;
27187;SDS011;14708;50.872;5.306;2023-04-24T08:45:30;47.33;;;15.85;;
27187;SDS011;14708;50.872;5.306;2023-04-24T08:47:57;37.33;;;13.95;;
27187;SDS011;14708;50.872;5.306;2023-04-24T08:50:24;36.45;;;13.23;;
27187;SDS011;14708;50.872;5.306;2023-04-24T08:52:51;39.08;;;15.23;;
27187;SDS011;14708;50.872;5.306;2023-04-24T08:55:46;34.83;;;12.90;;
27187;SDS011;14708;50.872;5.306;2023-04-24T08:58:33;29.02;;;12.68;;
27187;SDS011;14708;50.872;5.306;2023-04-24T09:00:58;29.52;;;12.63;;
27187;SDS011;14708;50.872;5.306;2023-04-24T09:03:26;29.42;;;10.95;;
27187;SDS011;14708;50.872;5.306;2023-04-24T09:05:53;29.65;;;10.95;;
27187;SDS011;14708;50.872;5.306;2023-04-24T09:08:20;34.13;;;12.48;;
27187;SDS011;14708;50.872;5.306;2023-04-24T09:10:49;29.05;;;12.32;;
27187;SDS011;14708;50.872;5.306;2023-04-24T09:13:15;30.77;;;10.95;;
27187;SDS011;14708;50.872;5.306;2023-04-24T09:15:42;23.83;;;10.05;;
27187;SDS011;14708;50.872;5.306;2023-04-24T09:18:07;26.80;;;10.32;;
27187;SDS011;14708;50.872;5.306;2023-04-24T09:20:33;25.70;;;9.35;;
27187;SDS011;14708;50.872;5.306;2023-04-24T09:23:01;24.35;;;10.18;;
27187;SDS011;14708;50.872;5.306;2023-04-24T09:25:33;28.33;;;10.68;;
27187;SDS011;14708;50.872;5.306;2023-04-24T09:28:02;26.45;;;10.23;;
27187;SDS011;14708;50.872;5.306;2023-04-24T09:30:29;27.83;;;10.50;;
27187;SDS011;14708;50.872;5.306;2023-04-24T09:33:10;27.52;;;10.98;;
27187;SDS011;14708;50.872;5.306;2023-04-24T09:35:49;28.33;;;10.45;;
27187;SDS011;14708;50.872;5.306;2023-04-24T09:38:16;25.27;;;9.68;;
27187;SDS011;14708;50.872;5.306;2023-04-24T09:40:44;23.05;;;9.25;;
27187;SDS011;14708;50.872;5.306;2023-04-24T09:43:13;24.98;;;10.23;;
27187;SDS011;14708;50.872;5.306;2023-04-24T09:45:42;22.88;;;9.48;;
27187;SDS011;14708;50.872;5.306;2023-04-24T09:48:11;25.90;;;9.95;;
27187;SDS011;14708;50.872;5.306;2023-04-24T09:50:36;22.00;;;8.80;;
27187;SDS011;14708;50.872;5.306;2023-04-24T09:53:03;24.27;;;9.40;;
27187;SDS011;14708;50.872;5.306;2023-04-24T09:55:33;20.10;;;9.13;;
27187;SDS011;14708;50.872;5.306;2023-04-24T09:58:04;24.02;;;9.43;;
27187;SDS011;14708;50.872;5.306;2023-04-24T10:00:33;26.98;;;9.25;;
27187;SDS011;14708;50.872;5.306;2023-04-24T10:02:59;20.70;;;9.98;;
27187;SDS011;14708;50.872;5.306;2023-04-24T10:05:30;21.20;;;9.23;;
27187;SDS011;14708;50.872;5.306;2023-04-24T10:08:01;26.83;;;9.25;;
27187;SDS011;14708;50.872;5.306;2023-04-24T10:10:30;17.48;;;8.35;;
27187;SDS011;14708;50.872;5.306;2023-04-24T10:12:57;19.70;;;8.95;;
27187;SDS011;14708;50.872;5.306;2023-04-24T10:15:23;20.88;;;8.82;;
27187;SDS011;14708;50.872;5.306;2023-04-24T10:17:51;23.02;;;8.27;;
27187;SDS011;14708;50.872;5.306;2023-04-24T10:20:20;19.77;;;8.02;;
27187;SDS011;14708;50.872;5.306;2023-04-24T10:25:25;18.33;;;7.28;;
27187;SDS011;14708;50.872;5.306;2023-04-24T10:27:52;18.30;;;7.37;;
27187;SDS011;14708;50.872;5.306;2023-04-24T10:30:24;17.10;;;7.22;;
27187;SDS011;14708;50.872;5.306;2023-04-24T10:32:52;19.80;;;8.40;;
27187;SDS011;14708;50.872;5.306;2023-04-24T10:35:18;13.10;;;6.55;;
27187;SDS011;14708;50.872;5.306;2023-04-24T10:37:52;15.80;;;7.25;;
27187;SDS011;14708;50.872;5.306;2023-04-24T10:40:26;17.73;;;7.25;;
27187;SDS011;14708;50.872;5.306;2023-04-24T10:42:54;18.02;;;7.13;;
27187;SDS011;14708;50.872;5.306;2023-04-24T10:45:22;18.42;;;7.88;;
27187;SDS011;14708;50.872;5.306;2023-04-24T10:47:58;16.65;;;7.20;;
27187;SDS011;14708;50.872;5.306;2023-04-24T10:50:30;15.63;;;7.50;;
27187;SDS011;14708;50.872;5.306;2023-04-24T10:53:20;18.70;;;7.68;;
27187;SDS011;14708;50.872;5.306;2023-04-24T10:56:07;12.15;;;5.95;;
27187;SDS011;14708;50.872;5.306;2023-04-24T11:01:31;10.50;;;6.47;;
27187;SDS011;14708;50.872;5.306;2023-04-24T11:04:00;12.45;;;5.82;;
27187;SDS011;14708;50.872;5.306;2023-04-24T11:06:30;18.17;;;7.28;;
27187;SDS011;14708;50.872;5.306;2023-04-24T11:09:04;13.38;;;6.03;;
27187;SDS011;14708;50.872;5.306;2023-04-24T11:11:34;15.48;;;6.85;;
27187;SDS011;14708;50.872;5.306;2023-04-24T11:14:02;14.05;;;6.65;;
27187;SDS011;14708;50.872;5.306;2023-04-24T11:19:25;17.07;;;6.90;;
27187;SDS011;14708;50.872;5.306;2023-04-24T11:22:17;13.98;;;6.20;;
27187;SDS011;14708;50.872;5.306;2023-04-24T11:27:14;11.55;;;6.20;;
27187;SDS011;14708;50.872;5.306;2023-04-24T11:33:05;11.80;;;6.00;;
27187;SDS011;14708;50.872;5.306;2023-04-24T11:35:34;13.93;;;6.10;;
27187;SDS011;14708;50.872;5.306;2023-04-24T11:38:07;14.60;;;5.78;;
27187;SDS011;14708;50.872;5.306;2023-04-24T11:40:33;11.15;;;5.85;;
27187;SDS011;14708;50.872;5.306;2023-04-24T11:43:32;14.27;;;6.00;;
27187;SDS011;14708;50.872;5.306;2023-04-24T11:49:17;10.55;;;5.72;;
27187;SDS011;14708;50.872;5.306;2023-04-24T11:51:55;10.80;;;5.47;;
27187;SDS011;14708;50.872;5.306;2023-04-24T11:54:56;10.57;;;5.40;;
27187;SDS011;14708;50.872;5.306;2023-04-24T11:57:55;12.32;;;5.55;;
27187;SDS011;14708;50.872;5.306;2023-04-24T12:01:04;13.88;;;5.97;;
27187;SDS011;14708;50.872;5.306;2023-04-24T12:03:38;11.45;;;5.72;;
27187;SDS011;14708;50.872;5.306;2023-04-24T12:06:09;9.43;;;5.20;;
27187;SDS011;14708;50.872;5.306;2023-04-24T12:08:47;10.95;;;5.88;;
27187;SDS011;14708;50.872;5.306;2023-04-24T12:11:19;8.93;;;4.82;;
27187;SDS011;14708;50.872;5.306;2023-04-24T12:13:45;9.43;;;5.05;;
27187;SDS011;14708;50.872;5.306;2023-04-24T12:16:11;10.02;;;5.53;;
27187;SDS011;14708;50.872;5.306;2023-04-24T12:18:41;11.60;;;5.65;;
27187;SDS011;14708;50.872;5.306;2023-04-24T12:21:19;10.38;;;5.38;;
27187;SDS011;14708;50.872;5.306;2023-04-24T12:23:50;10.77;;;5.35;;
27187;SDS011;14708;50.872;5.306;2023-04-24T12:26:20;10.70;;;5.25;;
27187;SDS011;14708;50.872;5.306;2023-04-24T12:28:48;9.40;;;5.10;;
27187;SDS011;14708;50.872;5.306;2023-04-24T12:31:16;12.67;;;5.53;;
27187;SDS011;14708;50.872;5.306;2023-04-24T12:33:42;11.02;;;6.00;;
27187;SDS011;14708;50.872;5.306;2023-04-24T12:36:11;10.55;;;5.35;;
27187;SDS011;14708;50.872;5.306;2023-04-24T12:38:43;7.45;;;5.05;;
27187;SDS011;14708;50.872;5.306;2023-04-24T12:41:12;11.13;;;5.53;;
27187;SDS011;14708;50.872;5.306;2023-04-24T12:43:50;10.40;;;5.10;;
27187;SDS011;14708;50.872;5.306;2023-04-24T12:46:17;8.82;;;5.18;;
27187;SDS011;14708;50.872;5.306;2023-04-24T12:48:43;7.55;;;4.95;;
27187;SDS011;14708;50.872;5.306;2023-04-24T12:51:09;9.68;;;5.55;;
27187;SDS011;14708;50.872;5.306;2023-04-24T12:53:35;7.90;;;4.90;;
27187;SDS011;14708;50.872;5.306;2023-04-24T12:56:01;11.13;;;4.70;;
27187;SDS011;14708;50.872;5.306;2023-04-24T12:58:27;12.00;;;5.53;;
27187;SDS011;14708;50.872;5.306;2023-04-24T13:01:05;9.98;;;5.03;;
27187;SDS011;14708;50.872;5.306;2023-04-24T13:03:31;9.43;;;5.32;;
27187;SDS011;14708;50.872;5.306;2023-04-24T13:05:57;11.52;;;5.35;;
27187;SDS011;14708;50.872;5.306;2023-04-24T13:08:22;8.68;;;4.72;;
27187;SDS011;14708;50.872;5.306;2023-04-24T13:10:48;9.05;;;5.45;;
27187;SDS011;14708;50.872;5.306;2023-04-24T13:13:16;7.82;;;4.68;;
27187;SDS011;14708;50.872;5.306;2023-04-24T13:15:42;7.85;;;4.93;;
27187;SDS011;14708;50.872;5.306;2023-04-24T13:18:08;9.90;;;4.63;;
27187;SDS011;14708;50.872;5.306;2023-04-24T13:20:33;10.15;;;5.00;;
27187;SDS011;14708;50.872;5.306;2023-04-24T13:23:04;9.80;;;4.97;;
27187;SDS011;14708;50.872;5.306;2023-04-24T13:25:35;9.27;;;5.00;;
27187;SDS011;14708;50.872;5.306;2023-04-24T13:28:02;9.65;;;4.97;;
27187;SDS011;14708;50.872;5.306;2023-04-24T13:30:27;7.38;;;4.72;;
27187;SDS011;14708;50.872;5.306;2023-04-24T13:32:53;11.73;;;4.55;;
27187;SDS011;14708;50.872;5.306;2023-04-24T13:35:21;11.50;;;5.15;;
27187;SDS011;14708;50.872;5.306;2023-04-24T13:37:47;9.82;;;4.15;;
27187;SDS011;14708;50.872;5.306;2023-04-24T13:40:16;7.20;;;4.78;;
27187;SDS011;14708;50.872;5.306;2023-04-24T13:42:42;9.90;;;5.30;;
27187;SDS011;14708;50.872;5.306;2023-04-24T13:45:08;10.80;;;4.03;;
27187;SDS011;14708;50.872;5.306;2023-04-24T13:47:35;8.98;;;4.32;;
27187;SDS011;14708;50.872;5.306;2023-04-24T13:50:01;21.52;;;8.60;;
27187;SDS011;14708;50.872;5.306;2023-04-24T13:52:27;49.80;;;15.43;;
27187;SDS011;14708;50.872;5.306;2023-04-24T13:54:52;43.20;;;13.18;;
27187;SDS011;14708;50.872;5.306;2023-04-24T13:57:18;39.28;;;12.10;;
27187;SDS011;14708;50.872;5.306;2023-04-24T13:59:44;28.35;;;9.15;;
27187;SDS011;14708;50.872;5.306;2023-04-24T14:02:10;22.15;;;6.93;;
27187;SDS011;14708;50.872;5.306;2023-04-24T14:04:36;24.42;;;8.73;;
27187;SDS011;14708;50.872;5.306;2023-04-24T14:07:01;23.38;;;8.52;;
27187;SDS011;14708;50.872;5.306;2023-04-24T14:09:27;23.58;;;9.20;;
27187;SDS011;14708;50.872;5.306;2023-04-24T14:11:53;28.42;;;9.50;;
27187;SDS011;14708;50.872;5.306;2023-04-24T14:14:19;26.40;;;9.13;;
27187;SDS011;14708;50.872;5.306;2023-04-24T14:16:44;20.02;;;8.30;;
27187;SDS011;14708;50.872;5.306;2023-04-24T14:19:10;23.35;;;8.07;;
27187;SDS011;14708;50.872;5.306;2023-04-24T14:21:36;23.40;;;7.43;;
27187;SDS011;14708;50.872;5.306;2023-04-24T14:24:05;24.15;;;8.70;;
27187;SDS011;14708;50.872;5.306;2023-04-24T14:26:31;24.02;;;8.70;;
27187;SDS011;14708;50.872;5.306;2023-04-24T14:28:57;23.27;;;8.32;;
27187;SDS011;14708;50.872;5.306;2023-04-24T14:31:24;22.63;;;8.07;;
27187;SDS011;14708;50.872;5.306;2023-04-24T14:33:49;19.95;;;7.50;;
27187;SDS011;14708;50.872;5.306;2023-04-24T14:36:18;22.10;;;8.37;;
27187;SDS011;14708;50.872;5.306;2023-04-24T14:38:44;22.73;;;8.45;;
27187;SDS011;14708;50.872;5.306;2023-04-24T14:41:11;24.08;;;8.07;;
27187;SDS011;14708;50.872;5.306;2023-04-24T14:43:39;16.20;;;6.30;;
27187;SDS011;14708;50.872;5.306;2023-04-24T14:46:05;15.25;;;6.82;;
27187;SDS011;14708;50.872;5.306;2023-04-24T14:48:31;17.95;;;6.70;;
27187;SDS011;14708;50.872;5.306;2023-04-24T14:50:57;14.02;;;5.70;;
27187;SDS011;14708;50.872;5.306;2023-04-24T14:53:23;19.58;;;6.43;;
27187;SDS011;14708;50.872;5.306;2023-04-24T14:55:49;17.70;;;5.78;;
27187;SDS011;14708;50.872;5.306;2023-04-24T14:58:15;17.02;;;6.10;;
27187;SDS011;14708;50.872;5.306;2023-04-24T15:00:41;17.25;;;6.65;;
27187;SDS011;14708;50.872;5.306;2023-04-24T15:03:07;17.38;;;6.40;;
27187;SDS011;14708;50.872;5.306;2023-04-24T15:05:33;21.23;;;6.32;;
27187;SDS011;14708;50.872;5.306;2023-04-24T15:07:59;13.80;;;5.97;;
27187;SDS011;14708;50.872;5.306;2023-04-24T15:10:25;16.38;;;5.65;;
27187;SDS011;14708;50.872;5.306;2023-04-24T15:12:51;15.65;;;6.30;;
27187;SDS011;14708;50.872;5.306;2023-04-24T15:15:17;18.35;;;6.72;;
27187;SDS011;14708;50.872;5.306;2023-04-24T15:17:43;16.98;;;6.20;;